sensor_id;sensor_type;location;lat;lon;timestamp;P1;durP1;ratioP1;P2;durP2;ratioP2
23561;SDS011;11959;49.418;8.728;2023-04-24T00:00:20;2.55;;;0.77;;
23561;SDS011;11959;49.418;8.728;2023-04-24T00:02:46;2.85;;;1.02;;
23561;SDS011;11959;49.418;8.728;2023-04-24T00:05:13;3.95;;;1.00;;
23561;SDS011;11959;49.418;8.728;2023-04-24T00:07:40;2.00;;;0.82;;
23561;SDS011;11959;49.418;8.728;2023-04-24T00:10:06;2.08;;;1.02;;
23561;SDS011;11959;49.418;8.728;2023-04-24T00:12:33;2.75;;;0.85;;
23561;SDS011;11959;49.418;8.728;2023-04-24T00:14:59;1.33;;;0.60;;
23561;SDS011;11959;49.418;8.728;2023-04-24T00:17:24;1.92;;;0.75;;
23561;SDS011;11959;49.418;8.728;2023-04-24T00:19:50;1.75;;;0.82;;
23561;SDS011;11959;49.418;8.728;2023-04-24T00:22:16;1.25;;;0.70;;
23561;SDS011;11959;49.418;8.728;2023-04-24T00:24:42;1.52;;;0.80;;
23561;SDS011;11959;49.418;8.728;2023-04-24T00:27:08;3.47;;;0.90;;
23561;SDS011;11959;49.418;8.728;2023-04-24T00:29:33;2.90;;;0.70;;
23561;SDS011;11959;49.418;8.728;2023-04-24T00:31:59;2.75;;;0.90;;
23561;SDS011;11959;49.418;8.728;2023-04-24T00:34:25;0.95;;;0.70;;
23561;SDS011;11959;49.418;8.728;2023-04-24T00:36:50;0.95;;;0.60;;
23561;SDS011;11959;49.418;8.728;2023-04-24T00:39:20;2.88;;;1.00;;
23561;SDS011;11959;49.418;8.728;2023-04-24T00:41:46;2.97;;;0.95;;
23561;SDS011;11959;49.418;8.728;2023-04-24T00:44:13;3.78;;;1.10;;
23561;SDS011;11959;49.418;8.728;2023-04-24T00:46:39;2.85;;;0.75;;
23561;SDS011;11959;49.418;8.728;2023-04-24T00:49:05;3.03;;;0.98;;
23561;SDS011;11959;49.418;8.728;2023-04-24T00:51:32;1.60;;;0.80;;
23561;SDS011;11959;49.418;8.728;2023-04-24T00:53:58;2.75;;;1.00;;
23561;SDS011;11959;49.418;8.728;2023-04-24T00:56:25;3.35;;;1.27;;
23561;SDS011;11959;49.418;8.728;2023-04-24T00:58:51;2.45;;;0.90;;
23561;SDS011;11959;49.418;8.728;2023-04-24T01:01:16;1.10;;;0.70;;
23561;SDS011;11959;49.418;8.728;2023-04-24T01:03:46;1.33;;;0.70;;
23561;SDS011;11959;49.418;8.728;2023-04-24T01:06:12;2.75;;;0.95;;
23561;SDS011;11959;49.418;8.728;2023-04-24T01:08:39;1.95;;;1.00;;
23561;SDS011;11959;49.418;8.728;2023-04-24T01:11:06;2.25;;;0.88;;
23561;SDS011;11959;49.418;8.728;2023-04-24T01:13:32;2.17;;;0.80;;
23561;SDS011;11959;49.418;8.728;2023-04-24T01:15:58;1.55;;;0.65;;
23561;SDS011;11959;49.418;8.728;2023-04-24T01:18:25;2.35;;;0.90;;
23561;SDS011;11959;49.418;8.728;2023-04-24T01:20:53;2.45;;;0.77;;
23561;SDS011;11959;49.418;8.728;2023-04-24T01:23:22;1.58;;;0.75;;
23561;SDS011;11959;49.418;8.728;2023-04-24T01:25:49;4.15;;;0.90;;
23561;SDS011;11959;49.418;8.728;2023-04-24T01:28:16;3.80;;;0.95;;
23561;SDS011;11959;49.418;8.728;2023-04-24T01:30:42;3.05;;;1.00;;
23561;SDS011;11959;49.418;8.728;2023-04-24T01:33:08;3.05;;;1.08;;
23561;SDS011;11959;49.418;8.728;2023-04-24T01:35:35;1.27;;;0.75;;
23561;SDS011;11959;49.418;8.728;2023-04-24T01:38:02;3.13;;;0.80;;
23561;SDS011;11959;49.418;8.728;2023-04-24T01:40:28;2.95;;;0.93;;
23561;SDS011;11959;49.418;8.728;2023-04-24T01:42:54;1.58;;;0.82;;
23561;SDS011;11959;49.418;8.728;2023-04-24T01:45:20;1.83;;;1.02;;
23561;SDS011;11959;49.418;8.728;2023-04-24T01:47:45;2.38;;;1.00;;
23561;SDS011;11959;49.418;8.728;2023-04-24T01:50:12;2.13;;;0.88;;
23561;SDS011;11959;49.418;8.728;2023-04-24T01:52:38;3.15;;;0.90;;
23561;SDS011;11959;49.418;8.728;2023-04-24T01:55:04;2.17;;;0.93;;
23561;SDS011;11959;49.418;8.728;2023-04-24T01:57:32;1.85;;;0.70;;
23561;SDS011;11959;49.418;8.728;2023-04-24T01:59:58;2.35;;;0.85;;
23561;SDS011;11959;49.418;8.728;2023-04-24T02:02:23;2.47;;;0.98;;
23561;SDS011;11959;49.418;8.728;2023-04-24T02:04:52;1.67;;;0.95;;
23561;SDS011;11959;49.418;8.728;2023-04-24T02:07:18;2.75;;;0.90;;
23561;SDS011;11959;49.418;8.728;2023-04-24T02:09:44;2.70;;;0.80;;
23561;SDS011;11959;49.418;8.728;2023-04-24T02:12:10;2.78;;;0.82;;
23561;SDS011;11959;49.418;8.728;2023-04-24T02:14:35;2.75;;;0.80;;
23561;SDS011;11959;49.418;8.728;2023-04-24T02:17:01;3.58;;;0.80;;
23561;SDS011;11959;49.418;8.728;2023-04-24T02:19:27;2.30;;;0.82;;
23561;SDS011;11959;49.418;8.728;2023-04-24T02:21:52;2.15;;;0.80;;
23561;SDS011;11959;49.418;8.728;2023-04-24T02:24:18;1.65;;;0.90;;
23561;SDS011;11959;49.418;8.728;2023-04-24T02:26:44;2.40;;;1.08;;
23561;SDS011;11959;49.418;8.728;2023-04-24T02:29:09;1.67;;;0.90;;
23561;SDS011;11959;49.418;8.728;2023-04-24T02:31:35;2.05;;;0.82;;
23561;SDS011;11959;49.418;8.728;2023-04-24T02:34:01;0.82;;;0.70;;
23561;SDS011;11959;49.418;8.728;2023-04-24T02:36:26;1.92;;;0.80;;
23561;SDS011;11959;49.418;8.728;2023-04-24T02:38:52;1.05;;;0.63;;
23561;SDS011;11959;49.418;8.728;2023-04-24T02:41:18;2.13;;;0.73;;
23561;SDS011;11959;49.418;8.728;2023-04-24T02:43:44;1.92;;;0.90;;
23561;SDS011;11959;49.418;8.728;2023-04-24T02:46:10;1.92;;;0.77;;
23561;SDS011;11959;49.418;8.728;2023-04-24T02:48:36;3.42;;;1.20;;
23561;SDS011;11959;49.418;8.728;2023-04-24T02:51:01;2.92;;;0.93;;
23561;SDS011;11959;49.418;8.728;2023-04-24T02:53:37;1.83;;;0.80;;
23561;SDS011;11959;49.418;8.728;2023-04-24T02:56:03;1.33;;;0.80;;
23561;SDS011;11959;49.418;8.728;2023-04-24T02:58:29;2.63;;;0.88;;
23561;SDS011;11959;49.418;8.728;2023-04-24T03:00:55;2.67;;;1.10;;
23561;SDS011;11959;49.418;8.728;2023-04-24T03:03:21;3.03;;;0.90;;
23561;SDS011;11959;49.418;8.728;2023-04-24T03:05:47;2.05;;;1.00;;
23561;SDS011;11959;49.418;8.728;2023-04-24T03:08:12;1.75;;;0.98;;
23561;SDS011;11959;49.418;8.728;2023-04-24T03:10:39;2.85;;;1.00;;
23561;SDS011;11959;49.418;8.728;2023-04-24T03:13:05;2.03;;;0.90;;
23561;SDS011;11959;49.418;8.728;2023-04-24T03:15:30;2.00;;;0.90;;
23561;SDS011;11959;49.418;8.728;2023-04-24T03:17:56;3.92;;;1.25;;
23561;SDS011;11959;49.418;8.728;2023-04-24T03:20:22;4.07;;;1.55;;
23561;SDS011;11959;49.418;8.728;2023-04-24T03:22:48;1.67;;;1.38;;
23561;SDS011;11959;49.418;8.728;2023-04-24T03:25:13;2.78;;;1.90;;
23561;SDS011;11959;49.418;8.728;2023-04-24T03:27:39;3.97;;;1.80;;
23561;SDS011;11959;49.418;8.728;2023-04-24T03:30:06;3.00;;;1.60;;
23561;SDS011;11959;49.418;8.728;2023-04-24T03:32:32;2.90;;;2.08;;
23561;SDS011;11959;49.418;8.728;2023-04-24T03:34:58;3.55;;;1.90;;
23561;SDS011;11959;49.418;8.728;2023-04-24T03:37:23;4.03;;;1.85;;
23561;SDS011;11959;49.418;8.728;2023-04-24T03:39:49;3.83;;;2.42;;
23561;SDS011;11959;49.418;8.728;2023-04-24T03:42:15;3.47;;;1.98;;
23561;SDS011;11959;49.418;8.728;2023-04-24T03:44:41;4.28;;;2.05;;
23561;SDS011;11959;49.418;8.728;2023-04-24T03:47:06;3.95;;;2.03;;
23561;SDS011;11959;49.418;8.728;2023-04-24T03:49:32;3.03;;;1.83;;
23561;SDS011;11959;49.418;8.728;2023-04-24T03:51:57;3.10;;;1.83;;
23561;SDS011;11959;49.418;8.728;2023-04-24T03:54:23;3.88;;;2.20;;
23561;SDS011;11959;49.418;8.728;2023-04-24T03:56:49;2.15;;;1.40;;
23561;SDS011;11959;49.418;8.728;2023-04-24T03:59:15;4.22;;;1.70;;
23561;SDS011;11959;49.418;8.728;2023-04-24T04:01:40;2.42;;;1.50;;
23561;SDS011;11959;49.418;8.728;2023-04-24T04:04:06;2.45;;;1.50;;
23561;SDS011;11959;49.418;8.728;2023-04-24T04:06:32;2.80;;;1.73;;
23561;SDS011;11959;49.418;8.728;2023-04-24T04:08:58;2.22;;;1.70;;
23561;SDS011;11959;49.418;8.728;2023-04-24T04:11:24;1.50;;;1.35;;
23561;SDS011;11959;49.418;8.728;2023-04-24T04:13:51;2.88;;;1.73;;
23561;SDS011;11959;49.418;8.728;2023-04-24T04:16:17;4.68;;;1.63;;
23561;SDS011;11959;49.418;8.728;2023-04-24T04:18:43;2.33;;;1.50;;
23561;SDS011;11959;49.418;8.728;2023-04-24T04:21:09;2.35;;;1.60;;
23561;SDS011;11959;49.418;8.728;2023-04-24T04:23:35;2.28;;;1.70;;
23561;SDS011;11959;49.418;8.728;2023-04-24T04:26:01;3.05;;;1.40;;
23561;SDS011;11959;49.418;8.728;2023-04-24T04:28:28;2.75;;;1.58;;
23561;SDS011;11959;49.418;8.728;2023-04-24T04:30:55;4.00;;;1.55;;
23561;SDS011;11959;49.418;8.728;2023-04-24T04:33:22;2.95;;;1.75;;
23561;SDS011;11959;49.418;8.728;2023-04-24T04:35:48;2.70;;;1.85;;
23561;SDS011;11959;49.418;8.728;2023-04-24T04:38:15;2.80;;;1.88;;
23561;SDS011;11959;49.418;8.728;2023-04-24T04:40:42;3.17;;;1.92;;
23561;SDS011;11959;49.418;8.728;2023-04-24T04:43:08;2.75;;;1.70;;
23561;SDS011;11959;49.418;8.728;2023-04-24T04:45:33;2.55;;;2.00;;
23561;SDS011;11959;49.418;8.728;2023-04-24T04:47:59;2.22;;;1.83;;
23561;SDS011;11959;49.418;8.728;2023-04-24T04:50:26;3.10;;;1.92;;
23561;SDS011;11959;49.418;8.728;2023-04-24T04:52:52;2.85;;;2.00;;
23561;SDS011;11959;49.418;8.728;2023-04-24T04:55:18;2.58;;;1.88;;
23561;SDS011;11959;49.418;8.728;2023-04-24T04:57:46;3.85;;;2.20;;
23561;SDS011;11959;49.418;8.728;2023-04-24T05:00:12;3.03;;;2.10;;
23561;SDS011;11959;49.418;8.728;2023-04-24T05:02:38;3.00;;;2.00;;
23561;SDS011;11959;49.418;8.728;2023-04-24T05:05:05;4.50;;;2.13;;
23561;SDS011;11959;49.418;8.728;2023-04-24T05:07:31;3.25;;;2.30;;
23561;SDS011;11959;49.418;8.728;2023-04-24T05:09:56;4.70;;;2.60;;
23561;SDS011;11959;49.418;8.728;2023-04-24T05:12:22;3.05;;;2.17;;
23561;SDS011;11959;49.418;8.728;2023-04-24T05:14:48;3.75;;;2.60;;
23561;SDS011;11959;49.418;8.728;2023-04-24T05:17:13;4.95;;;2.95;;
23561;SDS011;11959;49.418;8.728;2023-04-24T05:19:40;4.25;;;2.80;;
23561;SDS011;11959;49.418;8.728;2023-04-24T05:22:05;3.65;;;2.70;;
23561;SDS011;11959;49.418;8.728;2023-04-24T05:24:32;4.28;;;2.40;;
23561;SDS011;11959;49.418;8.728;2023-04-24T05:26:58;3.17;;;2.80;;
23561;SDS011;11959;49.418;8.728;2023-04-24T05:29:24;3.90;;;2.97;;
23561;SDS011;11959;49.418;8.728;2023-04-24T05:31:51;4.00;;;3.25;;
23561;SDS011;11959;49.418;8.728;2023-04-24T05:34:17;3.58;;;2.75;;
23561;SDS011;11959;49.418;8.728;2023-04-24T05:36:43;4.78;;;3.00;;
23561;SDS011;11959;49.418;8.728;2023-04-24T05:39:08;4.10;;;3.10;;
23561;SDS011;11959;49.418;8.728;2023-04-24T05:41:34;4.78;;;3.45;;
23561;SDS011;11959;49.418;8.728;2023-04-24T05:44:00;4.03;;;3.15;;
23561;SDS011;11959;49.418;8.728;2023-04-24T05:46:26;4.57;;;3.05;;
23561;SDS011;11959;49.418;8.728;2023-04-24T05:48:51;4.85;;;3.72;;
23561;SDS011;11959;49.418;8.728;2023-04-24T05:51:17;5.93;;;3.63;;
23561;SDS011;11959;49.418;8.728;2023-04-24T05:53:42;4.45;;;3.75;;
23561;SDS011;11959;49.418;8.728;2023-04-24T05:56:08;4.57;;;3.90;;
23561;SDS011;11959;49.418;8.728;2023-04-24T05:58:34;6.05;;;4.20;;
23561;SDS011;11959;49.418;8.728;2023-04-24T06:01:00;7.85;;;4.53;;
23561;SDS011;11959;49.418;8.728;2023-04-24T06:03:26;5.93;;;4.30;;
23561;SDS011;11959;49.418;8.728;2023-04-24T06:05:52;6.60;;;4.10;;
23561;SDS011;11959;49.418;8.728;2023-04-24T06:08:18;5.22;;;3.90;;
23561;SDS011;11959;49.418;8.728;2023-04-24T06:10:44;5.82;;;4.30;;
23561;SDS011;11959;49.418;8.728;2023-04-24T06:13:10;6.50;;;3.80;;
23561;SDS011;11959;49.418;8.728;2023-04-24T06:15:36;6.45;;;4.10;;
23561;SDS011;11959;49.418;8.728;2023-04-24T06:18:02;6.03;;;4.25;;
23561;SDS011;11959;49.418;8.728;2023-04-24T06:20:28;5.85;;;4.13;;
23561;SDS011;11959;49.418;8.728;2023-04-24T06:22:54;6.35;;;4.20;;
23561;SDS011;11959;49.418;8.728;2023-04-24T06:25:21;5.90;;;4.05;;
23561;SDS011;11959;49.418;8.728;2023-04-24T06:27:46;5.85;;;4.40;;
23561;SDS011;11959;49.418;8.728;2023-04-24T06:30:12;6.38;;;4.55;;
23561;SDS011;11959;49.418;8.728;2023-04-24T06:32:39;5.00;;;3.90;;
23561;SDS011;11959;49.418;8.728;2023-04-24T06:35:05;5.90;;;4.68;;
23561;SDS011;11959;49.418;8.728;2023-04-24T06:37:32;5.90;;;4.30;;
23561;SDS011;11959;49.418;8.728;2023-04-24T06:39:58;5.55;;;4.30;;
23561;SDS011;11959;49.418;8.728;2023-04-24T06:42:24;7.00;;;4.88;;
23561;SDS011;11959;49.418;8.728;2023-04-24T06:44:50;6.60;;;4.55;;
23561;SDS011;11959;49.418;8.728;2023-04-24T06:47:15;5.43;;;4.30;;
23561;SDS011;11959;49.418;8.728;2023-04-24T06:49:41;5.28;;;4.30;;
23561;SDS011;11959;49.418;8.728;2023-04-24T06:52:07;5.45;;;3.75;;
23561;SDS011;11959;49.418;8.728;2023-04-24T06:54:33;5.18;;;4.25;;
23561;SDS011;11959;49.418;8.728;2023-04-24T06:56:59;5.85;;;4.13;;
23561;SDS011;11959;49.418;8.728;2023-04-24T06:59:26;5.15;;;3.92;;
23561;SDS011;11959;49.418;8.728;2023-04-24T07:01:52;6.88;;;4.05;;
23561;SDS011;11959;49.418;8.728;2023-04-24T07:04:18;5.43;;;3.83;;
23561;SDS011;11959;49.418;8.728;2023-04-24T07:06:45;4.97;;;3.78;;
23561;SDS011;11959;49.418;8.728;2023-04-24T07:09:11;6.00;;;3.88;;
23561;SDS011;11959;49.418;8.728;2023-04-24T07:11:38;7.80;;;4.20;;
23561;SDS011;11959;49.418;8.728;2023-04-24T07:14:05;2.65;;;2.45;;
23561;SDS011;11959;49.418;8.728;2023-04-24T07:16:32;2.60;;;1.65;;
23561;SDS011;11959;49.418;8.728;2023-04-24T07:18:57;4.07;;;1.70;;
23561;SDS011;11959;49.418;8.728;2023-04-24T07:21:23;2.15;;;1.50;;
23561;SDS011;11959;49.418;8.728;2023-04-24T07:23:49;1.67;;;1.45;;
23561;SDS011;11959;49.418;8.728;2023-04-24T07:26:15;2.53;;;1.73;;
23561;SDS011;11959;49.418;8.728;2023-04-24T07:28:41;1.90;;;1.40;;
23561;SDS011;11959;49.418;8.728;2023-04-24T07:31:06;2.22;;;1.52;;
23561;SDS011;11959;49.418;8.728;2023-04-24T07:33:33;2.47;;;1.67;;
23561;SDS011;11959;49.418;8.728;2023-04-24T07:35:59;3.08;;;1.42;;
23561;SDS011;11959;49.418;8.728;2023-04-24T07:38:25;3.55;;;1.73;;
23561;SDS011;11959;49.418;8.728;2023-04-24T07:40:51;2.63;;;1.70;;
23561;SDS011;11959;49.418;8.728;2023-04-24T07:43:17;2.45;;;1.70;;
23561;SDS011;11959;49.418;8.728;2023-04-24T07:45:43;3.42;;;1.58;;
23561;SDS011;11959;49.418;8.728;2023-04-24T07:48:09;3.17;;;1.75;;
23561;SDS011;11959;49.418;8.728;2023-04-24T07:50:35;2.95;;;1.90;;
23561;SDS011;11959;49.418;8.728;2023-04-24T07:53:01;2.22;;;1.83;;
23561;SDS011;11959;49.418;8.728;2023-04-24T07:55:27;3.00;;;1.98;;
23561;SDS011;11959;49.418;8.728;2023-04-24T07:57:53;3.08;;;2.00;;
23561;SDS011;11959;49.418;8.728;2023-04-24T08:00:18;3.88;;;2.33;;
23561;SDS011;11959;49.418;8.728;2023-04-24T08:02:45;2.88;;;1.88;;
23561;SDS011;11959;49.418;8.728;2023-04-24T08:05:10;2.22;;;1.75;;
23561;SDS011;11959;49.418;8.728;2023-04-24T08:07:36;3.33;;;2.10;;
23561;SDS011;11959;49.418;8.728;2023-04-24T08:10:02;2.85;;;1.67;;
23561;SDS011;11959;49.418;8.728;2023-04-24T08:12:29;2.80;;;2.00;;
23561;SDS011;11959;49.418;8.728;2023-04-24T08:14:54;3.10;;;1.77;;
23561;SDS011;11959;49.418;8.728;2023-04-24T08:17:20;2.70;;;2.13;;
23561;SDS011;11959;49.418;8.728;2023-04-24T08:19:46;2.92;;;2.20;;
23561;SDS011;11959;49.418;8.728;2023-04-24T08:22:16;3.38;;;2.40;;
23561;SDS011;11959;49.418;8.728;2023-04-24T08:24:41;2.78;;;2.17;;
23561;SDS011;11959;49.418;8.728;2023-04-24T08:27:08;3.25;;;2.05;;
23561;SDS011;11959;49.418;8.728;2023-04-24T08:29:35;4.55;;;2.50;;
23561;SDS011;11959;49.418;8.728;2023-04-24T08:32:01;2.85;;;2.15;;
23561;SDS011;11959;49.418;8.728;2023-04-24T08:34:27;4.40;;;2.45;;
23561;SDS011;11959;49.418;8.728;2023-04-24T08:36:53;2.83;;;2.05;;
23561;SDS011;11959;49.418;8.728;2023-04-24T08:39:19;2.70;;;2.28;;
23561;SDS011;11959;49.418;8.728;2023-04-24T08:41:45;2.97;;;2.00;;
23561;SDS011;11959;49.418;8.728;2023-04-24T08:44:13;2.45;;;1.70;;
23561;SDS011;11959;49.418;8.728;2023-04-24T08:46:41;2.88;;;1.80;;
23561;SDS011;11959;49.418;8.728;2023-04-24T08:49:10;3.95;;;2.05;;
23561;SDS011;11959;49.418;8.728;2023-04-24T08:51:38;4.05;;;2.22;;
23561;SDS011;11959;49.418;8.728;2023-04-24T08:54:05;5.03;;;2.30;;
23561;SDS011;11959;49.418;8.728;2023-04-24T08:56:33;3.00;;;1.98;;
23561;SDS011;11959;49.418;8.728;2023-04-24T08:58:59;2.45;;;1.90;;
23561;SDS011;11959;49.418;8.728;2023-04-24T09:01:25;2.65;;;1.58;;
23561;SDS011;11959;49.418;8.728;2023-04-24T09:03:52;3.33;;;1.65;;
23561;SDS011;11959;49.418;8.728;2023-04-24T09:06:19;3.33;;;2.00;;
23561;SDS011;11959;49.418;8.728;2023-04-24T09:08:46;3.10;;;1.70;;
23561;SDS011;11959;49.418;8.728;2023-04-24T09:11:13;2.03;;;1.80;;
23561;SDS011;11959;49.418;8.728;2023-04-24T09:13:39;3.85;;;1.90;;
23561;SDS011;11959;49.418;8.728;2023-04-24T09:16:06;3.03;;;1.70;;
23561;SDS011;11959;49.418;8.728;2023-04-24T09:18:31;6.35;;;2.33;;
23561;SDS011;11959;49.418;8.728;2023-04-24T09:21:01;3.85;;;2.10;;
23561;SDS011;11959;49.418;8.728;2023-04-24T09:23:29;3.90;;;2.03;;
23561;SDS011;11959;49.418;8.728;2023-04-24T09:25:56;2.60;;;1.85;;
23561;SDS011;11959;49.418;8.728;2023-04-24T09:28:28;5.53;;;2.40;;
23561;SDS011;11959;49.418;8.728;2023-04-24T09:31:02;2.20;;;1.67;;
23561;SDS011;11959;49.418;8.728;2023-04-24T09:33:27;2.88;;;1.88;;
23561;SDS011;11959;49.418;8.728;2023-04-24T09:35:54;2.08;;;1.70;;
23561;SDS011;11959;49.418;8.728;2023-04-24T09:38:30;3.65;;;1.90;;
23561;SDS011;11959;49.418;8.728;2023-04-24T09:41:01;3.70;;;2.20;;
23561;SDS011;11959;49.418;8.728;2023-04-24T09:43:28;5.68;;;1.90;;
23561;SDS011;11959;49.418;8.728;2023-04-24T09:45:55;3.15;;;1.85;;
23561;SDS011;11959;49.418;8.728;2023-04-24T09:48:35;4.53;;;1.88;;
23561;SDS011;11959;49.418;8.728;2023-04-24T09:51:03;2.92;;;1.90;;
23561;SDS011;11959;49.418;8.728;2023-04-24T09:53:31;2.78;;;1.90;;
23561;SDS011;11959;49.418;8.728;2023-04-24T09:56:07;4.40;;;2.20;;
23561;SDS011;11959;49.418;8.728;2023-04-24T09:58:35;2.78;;;1.98;;
23561;SDS011;11959;49.418;8.728;2023-04-24T10:01:01;3.53;;;1.88;;
23561;SDS011;11959;49.418;8.728;2023-04-24T10:03:29;3.22;;;1.70;;
23561;SDS011;11959;49.418;8.728;2023-04-24T10:05:59;4.00;;;2.30;;
23561;SDS011;11959;49.418;8.728;2023-04-24T10:08:34;4.10;;;2.20;;
23561;SDS011;11959;49.418;8.728;2023-04-24T10:11:01;4.68;;;2.70;;
23561;SDS011;11959;49.418;8.728;2023-04-24T10:13:28;4.03;;;2.40;;
23561;SDS011;11959;49.418;8.728;2023-04-24T10:15:54;4.15;;;3.03;;
23561;SDS011;11959;49.418;8.728;2023-04-24T10:18:21;3.88;;;2.65;;
23561;SDS011;11959;49.418;8.728;2023-04-24T10:20:47;3.50;;;2.63;;
23561;SDS011;11959;49.418;8.728;2023-04-24T10:23:13;5.65;;;3.17;;
23561;SDS011;11959;49.418;8.728;2023-04-24T10:25:39;3.78;;;2.90;;
23561;SDS011;11959;49.418;8.728;2023-04-24T10:28:05;3.83;;;2.88;;
23561;SDS011;11959;49.418;8.728;2023-04-24T10:30:32;4.57;;;3.40;;
23561;SDS011;11959;49.418;8.728;2023-04-24T10:33:03;5.00;;;2.97;;
23561;SDS011;11959;49.418;8.728;2023-04-24T10:35:37;4.07;;;3.25;;
23561;SDS011;11959;49.418;8.728;2023-04-24T10:38:10;5.15;;;3.00;;
23561;SDS011;11959;49.418;8.728;2023-04-24T10:40:37;4.70;;;3.00;;
23561;SDS011;11959;49.418;8.728;2023-04-24T10:43:03;5.47;;;3.03;;
23561;SDS011;11959;49.418;8.728;2023-04-24T10:45:34;5.25;;;2.95;;
23561;SDS011;11959;49.418;8.728;2023-04-24T10:48:02;3.63;;;2.65;;
23561;SDS011;11959;49.418;8.728;2023-04-24T10:50:29;2.78;;;2.25;;
23561;SDS011;11959;49.418;8.728;2023-04-24T10:53:23;2.65;;;2.00;;
23561;SDS011;11959;49.418;8.728;2023-04-24T10:55:57;5.00;;;2.40;;
23561;SDS011;11959;49.418;8.728;2023-04-24T10:58:24;2.40;;;1.70;;
23561;SDS011;11959;49.418;8.728;2023-04-24T11:01:00;2.80;;;1.83;;
23561;SDS011;11959;49.418;8.728;2023-04-24T11:03:27;4.32;;;2.28;;
23561;SDS011;11959;49.418;8.728;2023-04-24T11:08:25;3.78;;;2.10;;
23561;SDS011;11959;49.418;8.728;2023-04-24T11:10:55;3.80;;;2.55;;
23561;SDS011;11959;49.418;8.728;2023-04-24T11:13:23;4.38;;;2.78;;
23561;SDS011;11959;49.418;8.728;2023-04-24T11:18:39;4.80;;;3.30;;
23561;SDS011;11959;49.418;8.728;2023-04-24T11:21:17;3.72;;;3.15;;
23561;SDS011;11959;49.418;8.728;2023-04-24T11:23:44;5.10;;;2.67;;
23561;SDS011;11959;49.418;8.728;2023-04-24T11:26:17;5.80;;;3.03;;
23561;SDS011;11959;49.418;8.728;2023-04-24T11:28:46;4.90;;;2.80;;
23561;SDS011;11959;49.418;8.728;2023-04-24T11:34:11;3.92;;;3.08;;
23561;SDS011;11959;49.418;8.728;2023-04-24T11:36:39;4.05;;;2.97;;
23561;SDS011;11959;49.418;8.728;2023-04-24T11:39:09;4.68;;;2.83;;
23561;SDS011;11959;49.418;8.728;2023-04-24T11:41:36;4.18;;;2.55;;
23561;SDS011;11959;49.418;8.728;2023-04-24T11:44:02;4.25;;;2.65;;
23561;SDS011;11959;49.418;8.728;2023-04-24T11:46:30;3.78;;;2.58;;
23561;SDS011;11959;49.418;8.728;2023-04-24T11:48:57;4.07;;;2.80;;
23561;SDS011;11959;49.418;8.728;2023-04-24T11:51:23;3.88;;;2.97;;
23561;SDS011;11959;49.418;8.728;2023-04-24T11:53:55;5.63;;;3.65;;
23561;SDS011;11959;49.418;8.728;2023-04-24T11:56:22;5.63;;;3.40;;
23561;SDS011;11959;49.418;8.728;2023-04-24T11:58:52;5.95;;;3.33;;
23561;SDS011;11959;49.418;8.728;2023-04-24T12:01:19;4.95;;;3.92;;
23561;SDS011;11959;49.418;8.728;2023-04-24T12:03:49;6.47;;;3.65;;
23561;SDS011;11959;49.418;8.728;2023-04-24T12:06:18;5.50;;;3.80;;
23561;SDS011;11959;49.418;8.728;2023-04-24T12:08:47;4.68;;;3.50;;
23561;SDS011;11959;49.418;8.728;2023-04-24T12:11:14;5.32;;;3.58;;
23561;SDS011;11959;49.418;8.728;2023-04-24T12:13:42;5.18;;;3.42;;
23561;SDS011;11959;49.418;8.728;2023-04-24T12:16:08;5.30;;;3.50;;
23561;SDS011;11959;49.418;8.728;2023-04-24T12:18:34;3.95;;;3.10;;
23561;SDS011;11959;49.418;8.728;2023-04-24T12:21:15;5.25;;;3.42;;
23561;SDS011;11959;49.418;8.728;2023-04-24T12:23:45;4.28;;;3.40;;
23561;SDS011;11959;49.418;8.728;2023-04-24T12:26:11;5.63;;;3.67;;
23561;SDS011;11959;49.418;8.728;2023-04-24T12:28:40;6.05;;;3.83;;
23561;SDS011;11959;49.418;8.728;2023-04-24T12:31:06;6.00;;;3.40;;
23561;SDS011;11959;49.418;8.728;2023-04-24T12:33:33;5.63;;;4.00;;
23561;SDS011;11959;49.418;8.728;2023-04-24T12:36:00;7.38;;;3.42;;
23561;SDS011;11959;49.418;8.728;2023-04-24T12:38:27;4.38;;;3.50;;
23561;SDS011;11959;49.418;8.728;2023-04-24T12:41:11;6.35;;;3.42;;
23561;SDS011;11959;49.418;8.728;2023-04-24T12:43:38;3.83;;;3.05;;
23561;SDS011;11959;49.418;8.728;2023-04-24T12:46:15;3.78;;;3.10;;
23561;SDS011;11959;49.418;8.728;2023-04-24T12:48:41;4.80;;;3.20;;
23561;SDS011;11959;49.418;8.728;2023-04-24T12:51:06;6.13;;;3.40;;
23561;SDS011;11959;49.418;8.728;2023-04-24T12:53:32;4.18;;;2.95;;
23561;SDS011;11959;49.418;8.728;2023-04-24T12:55:57;5.55;;;3.40;;
23561;SDS011;11959;49.418;8.728;2023-04-24T12:58:23;4.00;;;2.92;;
23561;SDS011;11959;49.418;8.728;2023-04-24T13:00:49;3.78;;;2.95;;
23561;SDS011;11959;49.418;8.728;2023-04-24T13:03:15;7.45;;;3.13;;
23561;SDS011;11959;49.418;8.728;2023-04-24T13:05:42;7.40;;;3.45;;
23561;SDS011;11959;49.418;8.728;2023-04-24T13:08:08;4.20;;;3.15;;
23561;SDS011;11959;49.418;8.728;2023-04-24T13:10:34;5.90;;;3.15;;
23561;SDS011;11959;49.418;8.728;2023-04-24T13:13:00;4.45;;;3.00;;
23561;SDS011;11959;49.418;8.728;2023-04-24T13:15:25;4.95;;;2.83;;
23561;SDS011;11959;49.418;8.728;2023-04-24T13:17:51;6.28;;;3.50;;
23561;SDS011;11959;49.418;8.728;2023-04-24T13:20:17;4.03;;;2.53;;
23561;SDS011;11959;49.418;8.728;2023-04-24T13:22:43;5.90;;;3.15;;
23561;SDS011;11959;49.418;8.728;2023-04-24T13:25:08;5.93;;;3.15;;
23561;SDS011;11959;49.418;8.728;2023-04-24T13:27:35;3.83;;;2.90;;
23561;SDS011;11959;49.418;8.728;2023-04-24T13:30:03;5.82;;;3.40;;
23561;SDS011;11959;49.418;8.728;2023-04-24T13:32:29;6.15;;;3.17;;
23561;SDS011;11959;49.418;8.728;2023-04-24T13:34:54;5.60;;;3.17;;
23561;SDS011;11959;49.418;8.728;2023-04-24T13:37:21;6.97;;;3.50;;
23561;SDS011;11959;49.418;8.728;2023-04-24T13:39:47;4.00;;;3.05;;
23561;SDS011;11959;49.418;8.728;2023-04-24T13:42:13;3.55;;;2.88;;
23561;SDS011;11959;49.418;8.728;2023-04-24T13:44:39;4.68;;;2.92;;
23561;SDS011;11959;49.418;8.728;2023-04-24T13:47:05;4.03;;;2.80;;
23561;SDS011;11959;49.418;8.728;2023-04-24T13:49:31;5.65;;;3.17;;
23561;SDS011;11959;49.418;8.728;2023-04-24T13:51:56;6.00;;;2.92;;
23561;SDS011;11959;49.418;8.728;2023-04-24T13:54:22;3.15;;;2.78;;
23561;SDS011;11959;49.418;8.728;2023-04-24T13:56:50;4.93;;;3.10;;
23561;SDS011;11959;49.418;8.728;2023-04-24T13:59:16;3.38;;;2.90;;
23561;SDS011;11959;49.418;8.728;2023-04-24T14:01:42;5.32;;;2.67;;
23561;SDS011;11959;49.418;8.728;2023-04-24T14:04:09;3.92;;;3.40;;
23561;SDS011;11959;49.418;8.728;2023-04-24T14:06:35;5.78;;;3.20;;
23561;SDS011;11959;49.418;8.728;2023-04-24T14:09:01;4.28;;;3.22;;
23561;SDS011;11959;49.418;8.728;2023-04-24T14:11:29;7.55;;;3.05;;
23561;SDS011;11959;49.418;8.728;2023-04-24T14:13:55;5.50;;;2.88;;
23561;SDS011;11959;49.418;8.728;2023-04-24T14:16:23;3.78;;;2.60;;
23561;SDS011;11959;49.418;8.728;2023-04-24T14:18:49;5.78;;;2.88;;
23561;SDS011;11959;49.418;8.728;2023-04-24T14:21:15;3.90;;;3.10;;
23561;SDS011;11959;49.418;8.728;2023-04-24T14:23:41;5.07;;;2.85;;
23561;SDS011;11959;49.418;8.728;2023-04-24T14:26:06;5.30;;;3.17;;
23561;SDS011;11959;49.418;8.728;2023-04-24T14:28:32;4.93;;;3.03;;
23561;SDS011;11959;49.418;8.728;2023-04-24T14:30:58;4.88;;;3.40;;
23561;SDS011;11959;49.418;8.728;2023-04-24T14:33:23;5.35;;;3.30;;
23561;SDS011;11959;49.418;8.728;2023-04-24T14:35:49;5.95;;;4.35;;
23561;SDS011;11959;49.418;8.728;2023-04-24T14:38:15;6.30;;;3.60;;
23561;SDS011;11959;49.418;8.728;2023-04-24T14:40:40;6.10;;;4.03;;
23561;SDS011;11959;49.418;8.728;2023-04-24T14:43:06;5.57;;;3.55;;
23561;SDS011;11959;49.418;8.728;2023-04-24T14:45:32;5.30;;;3.45;;
23561;SDS011;11959;49.418;8.728;2023-04-24T14:47:57;5.03;;;3.80;;
23561;SDS011;11959;49.418;8.728;2023-04-24T14:50:23;5.63;;;3.80;;
23561;SDS011;11959;49.418;8.728;2023-04-24T14:52:52;4.88;;;3.58;;